Date,TemperatureHighF,TemperatureAvgF,TemperatureLowF,DewpointHighF,DewpointAvgF,DewpointLowF,HumidityHigh,HumidityAvg,HumidityLow,PressureMaxIn,PressureMinIn,WindSpeedMaxMPH,WindSpeedAvgMPH,GustSpeedMaxMPH,PrecipitationSumIn
2013-1-1,63,47,32,31,22,11,76,42,19,30.07,29.95,5,1,11,0.00
2013-1-2,71,54,42,17,11,5,34,19,10,30.02,29.83,8,2,16,0.00
2013-1-3,70,53,38,17,8,-2,36,18,10,30.03,29.89,11,2,20,0.00
2013-1-4,67,46,31,15,8,-1,44,25,10,30.76,29.98,3,1,8,0.00
2013-1-5,66,46,30,17,11,4,50,29,10,30.14,29.98,3,1,6,0.00
2013-1-6,62,50,33,41,28,14,71,45,22,29.98,29.77,9,3,21,0.00
2013-1-7,69,58,45,41,22,6,72,30,11,29.85,29.74,9,3,28,0.00
2013-1-8,78,67,53,33,27,10,39,23,13,29.92,29.78,8,3,21,0.00
2013-1-9,75,62,48,42,33,30,56,36,20,29.97,29.70,3,0,9,0.00
2013-1-10,61,53,44,45,35,20,69,52,32,29.81,29.59,12,4,27,0.00
2013-1-11,61,46,41,26,19,7,45,34,14,29.92,29.78,7,3,17,0.00
2013-1-12,58,44,20,30,17,2,64,36,12,29.95,29.81,4,1,12,0.00
2013-1-13,55,41,25,14,9,-1,56,30,14,30.00,29.83,11,2,22,0.00
2013-1-14,53,43,36,2,-6,-12,20,13,10,30.17,29.98,13,5,29,0.00
2013-1-15,59,43,32,17,9,-6,42,26,13,30.26,30.13,6,2,14,0.00
2013-1-16,69,50,33,24,19,13,47,31,16,30.22,30.02,4,1,12,0.00
2013-1-17,76,61,44,20,13,5,35,17,10,30.10,29.93,7,2,12,0.00
2013-1-18,79,54,42,27,16,8,38,24,10,30.05,29.90,2,0,4,0.00
2013-1-19,82,60,44,20,13,4,31,17,10,30.06,29.89,3,1,8,0.00
2013-1-20,83,60,41,21,11,0,29,16,10,29.99,29.81,4,1,12,0.00
2013-1-21,84,67,48,22,10,-3,15,10,10,29.95,29.81,7,2,14,0.00
2013-1-22,81,58,40,19,11,-1,27,16,10,29.96,29.83,3,1,8,0.00
2013-1-23,81,62,48,34,20,12,36,21,10,29.95,29.82,3,0,4,0.00
2013-1-24,74,63,56,50,42,30,79,48,28,30.00,29.87,5,1,11,0.00
2013-1-25,64,58,55,62,57,50,99,97,79,30.00,29.78,3,0,7,0.30
2013-1-26,68,60,56,63,59,56,99,95,77,29.79,29.65,3,1,7,0.08
2013-1-27,69,58,48,60,49,36,99,76,46,29.76,29.65,11,3,23,0.00
2013-1-28,67,52,44,41,31,22,83,48,21,29.94,29.75,7,3,20,0.01
2013-1-29,66,52,41,42,35,27,85,52,29,30.04,29.83,5,2,14,0.00
2013-1-30,72,54,40,44,37,31,88,59,25,30.15,29.99,3,1,9,0.00
2013-1-31,80,57,41,44,39,32,91,57,18,30.06,29.87,3,0,8,0.00
2013-2-1,79,59,45,44,38,30,86,52,17,30.02,29.87,2,0,6,0.00
2013-2-2,81,64,50,51,40,25,73,47,15,30.03,29.88,2,0,6,0.00
2013-2-3,79,66,54,51,44,38,71,45,28,29.91,29.73,6,1,11,0.00
2013-2-4,85,65,50,43,34,22,66,37,12,29.85,29.69,5,1,12,0.00
2013-2-5,83,65,48,41,33,21,55,33,13,29.82,29.65,9,2,16,0.00
2013-2-6,80,64,54,46,40,15,70,45,10,29.85,29.67,8,3,19,0.00
2013-2-7,77,61,44,47,29,13,63,35,10,29.88,29.69,10,2,22,0.00
2013-2-8,60,50,43,41,36,31,83,60,41,29.74,29.65,13,6,27,0.00
2013-2-9,61,50,41,34,32,30,69,51,33,29.85,29.67,8,4,24,0.00
2013-2-10,64,52,44,35,32,29,59,47,28,29.85,28.33,7,4,20,0.00
2013-2-11,63,52,36,36,15,-3,63,27,10,30.05,29.81,9,4,25,0.00
2013-2-12,72,51,33,20,12,2,46,25,10,30.14,29.96,6,1,11,0.00
2013-2-13,78,56,38,28,20,9,50,29,10,30.06,29.85,6,1,17,0.00
2013-2-14,80,63,45,32,22,14,49,24,10,30.01,29.85,8,2,20,0.00
2013-2-15,80,63,47,28,20,11,42,22,10,30.08,29.94,9,2,17,0.00
2013-2-16,84,61,44,27,18,8,39,21,10,30.55,29.77,4,1,8,0.00
2013-2-17,82,63,43,35,21,8,38,23,10,29.79,29.59,10,3,21,0.00
2013-2-18,78,62,43,39,28,15,47,30,10,29.81,29.63,4,1,11,0.00
2013-2-19,62,55,47,42,38,34,69,53,40,29.67,29.46,13,6,34,0.00
2013-2-20,48,47,47,40,40,39,77,76,72,29.49,29.48,3,2,10,0.00